sensor_id;sensor_type;location;lat;lon;timestamp;P1;durP1;ratioP1;P2;durP2;ratioP2
11008;SDS011;5557;51.670;7.788;2022-09-09T00:04:58;2.07;;;1.00;;
11008;SDS011;5557;51.670;7.788;2022-09-09T00:07:49;2.23;;;1.03;;
11008;SDS011;5557;51.670;7.788;2022-09-09T00:10:31;2.17;;;1.30;;
11008;SDS011;5557;51.670;7.788;2022-09-09T00:19:02;3.13;;;1.17;;
11008;SDS011;5557;51.670;7.788;2022-09-09T00:21:38;2.80;;;1.03;;
11008;SDS011;5557;51.670;7.788;2022-09-09T00:24:29;2.83;;;1.30;;
11008;SDS011;5557;51.670;7.788;2022-09-09T00:27:07;1.47;;;1.23;;
11008;SDS011;5557;51.670;7.788;2022-09-09T00:29:47;1.83;;;1.20;;
11008;SDS011;5557;51.670;7.788;2022-09-09T00:32:20;2.00;;;0.80;;
11008;SDS011;5557;51.670;7.788;2022-09-09T00:34:49;2.13;;;0.93;;
11008;SDS011;5557;51.670;7.788;2022-09-09T00:37:20;2.70;;;0.90;;
11008;SDS011;5557;51.670;7.788;2022-09-09T00:39:51;1.67;;;1.20;;
11008;SDS011;5557;51.670;7.788;2022-09-09T00:42:24;2.50;;;0.80;;
11008;SDS011;5557;51.670;7.788;2022-09-09T00:44:58;3.07;;;1.27;;
11008;SDS011;5557;51.670;7.788;2022-09-09T00:47:39;1.83;;;1.27;;
11008;SDS011;5557;51.670;7.788;2022-09-09T00:56:18;3.80;;;1.13;;
11008;SDS011;5557;51.670;7.788;2022-09-09T00:59:34;3.47;;;1.33;;
11008;SDS011;5557;51.670;7.788;2022-09-09T01:01:58;2.80;;;1.30;;
11008;SDS011;5557;51.670;7.788;2022-09-09T01:04:34;3.77;;;1.93;;
11008;SDS011;5557;51.670;7.788;2022-09-09T01:07:13;1.80;;;1.27;;
11008;SDS011;5557;51.670;7.788;2022-09-09T01:09:50;1.73;;;1.63;;
11008;SDS011;5557;51.670;7.788;2022-09-09T01:12:26;1.40;;;1.30;;
11008;SDS011;5557;51.670;7.788;2022-09-09T01:15:15;3.27;;;1.40;;
11008;SDS011;5557;51.670;7.788;2022-09-09T01:18:10;2.40;;;1.23;;
11008;SDS011;5557;51.670;7.788;2022-09-09T01:27:03;2.90;;;1.30;;
11008;SDS011;5557;51.670;7.788;2022-09-09T01:29:32;4.67;;;1.53;;
11008;SDS011;5557;51.670;7.788;2022-09-09T01:32:00;1.60;;;1.50;;
11008;SDS011;5557;51.670;7.788;2022-09-09T01:34:38;11.60;;;1.60;;
11008;SDS011;5557;51.670;7.788;2022-09-09T01:37:10;4.80;;;2.30;;
11008;SDS011;5557;51.670;7.788;2022-09-09T01:39:40;3.27;;;1.40;;
11008;SDS011;5557;51.670;7.788;2022-09-09T01:42:10;4.10;;;1.77;;
11008;SDS011;5557;51.670;7.788;2022-09-09T01:44:40;1.83;;;1.70;;
11008;SDS011;5557;51.670;7.788;2022-09-09T01:47:07;3.63;;;2.20;;
11008;SDS011;5557;51.670;7.788;2022-09-09T01:49:35;2.90;;;1.87;;
11008;SDS011;5557;51.670;7.788;2022-09-09T01:52:02;1.70;;;1.50;;
11008;SDS011;5557;51.670;7.788;2022-09-09T01:54:30;4.70;;;1.93;;
11008;SDS011;5557;51.670;7.788;2022-09-09T01:57:06;4.67;;;2.03;;
11008;SDS011;5557;51.670;7.788;2022-09-09T02:00:09;2.10;;;1.87;;
11008;SDS011;5557;51.670;7.788;2022-09-09T02:03:24;4.13;;;2.07;;
11008;SDS011;5557;51.670;7.788;2022-09-09T02:08:50;2.00;;;1.90;;
11008;SDS011;5557;51.670;7.788;2022-09-09T02:11:22;2.83;;;1.60;;
11008;SDS011;5557;51.670;7.788;2022-09-09T02:13:52;3.67;;;2.30;;
11008;SDS011;5557;51.670;7.788;2022-09-09T02:16:26;5.43;;;2.30;;
11008;SDS011;5557;51.670;7.788;2022-09-09T02:19:21;2.70;;;2.20;;
11008;SDS011;5557;51.670;7.788;2022-09-09T02:21:53;3.30;;;2.40;;
11008;SDS011;5557;51.670;7.788;2022-09-09T02:24:22;1.93;;;1.83;;
11008;SDS011;5557;51.670;7.788;2022-09-09T02:26:49;3.27;;;2.30;;
11008;SDS011;5557;51.670;7.788;2022-09-09T02:29:31;2.97;;;2.77;;
11008;SDS011;5557;51.670;7.788;2022-09-09T02:32:03;3.60;;;2.73;;
11008;SDS011;5557;51.670;7.788;2022-09-09T02:34:34;8.90;;;2.50;;
11008;SDS011;5557;51.670;7.788;2022-09-09T02:37:06;4.80;;;1.93;;
11008;SDS011;5557;51.670;7.788;2022-09-09T02:39:35;5.90;;;4.43;;
11008;SDS011;5557;51.670;7.788;2022-09-09T02:42:03;2.93;;;2.40;;
11008;SDS011;5557;51.670;7.788;2022-09-09T02:44:31;3.80;;;2.80;;
11008;SDS011;5557;51.670;7.788;2022-09-09T02:47:10;7.90;;;3.33;;
11008;SDS011;5557;51.670;7.788;2022-09-09T02:49:52;7.23;;;2.90;;
11008;SDS011;5557;51.670;7.788;2022-09-09T02:52:44;5.50;;;2.63;;
11008;SDS011;5557;51.670;7.788;2022-09-09T02:55:41;9.17;;;2.87;;
11008;SDS011;5557;51.670;7.788;2022-09-09T02:58:16;5.40;;;2.70;;
11008;SDS011;5557;51.670;7.788;2022-09-09T03:00:47;4.63;;;3.10;;
11008;SDS011;5557;51.670;7.788;2022-09-09T03:03:17;3.10;;;2.27;;
11008;SDS011;5557;51.670;7.788;2022-09-09T03:05:45;3.33;;;2.30;;
11008;SDS011;5557;51.670;7.788;2022-09-09T03:08:12;4.13;;;2.00;;
11008;SDS011;5557;51.670;7.788;2022-09-09T03:10:40;4.80;;;2.00;;
11008;SDS011;5557;51.670;7.788;2022-09-09T03:13:07;8.73;;;2.27;;
11008;SDS011;5557;51.670;7.788;2022-09-09T03:15:34;3.17;;;1.67;;
11008;SDS011;5557;51.670;7.788;2022-09-09T03:18:01;5.27;;;1.50;;
11008;SDS011;5557;51.670;7.788;2022-09-09T03:20:29;2.47;;;2.20;;
11008;SDS011;5557;51.670;7.788;2022-09-09T03:22:57;2.73;;;2.00;;
11008;SDS011;5557;51.670;7.788;2022-09-09T03:25:25;2.17;;;1.60;;
11008;SDS011;5557;51.670;7.788;2022-09-09T03:27:52;2.03;;;1.67;;
11008;SDS011;5557;51.670;7.788;2022-09-09T03:30:22;3.00;;;1.87;;
11008;SDS011;5557;51.670;7.788;2022-09-09T03:32:50;1.73;;;1.63;;
11008;SDS011;5557;51.670;7.788;2022-09-09T03:35:18;2.60;;;2.00;;
11008;SDS011;5557;51.670;7.788;2022-09-09T03:37:45;2.23;;;2.00;;
11008;SDS011;5557;51.670;7.788;2022-09-09T03:40:12;3.97;;;2.00;;
11008;SDS011;5557;51.670;7.788;2022-09-09T03:42:40;8.20;;;2.40;;
11008;SDS011;5557;51.670;7.788;2022-09-09T03:45:07;4.40;;;2.10;;
11008;SDS011;5557;51.670;7.788;2022-09-09T03:47:36;3.20;;;1.27;;
11008;SDS011;5557;51.670;7.788;2022-09-09T03:50:04;2.23;;;1.80;;
11008;SDS011;5557;51.670;7.788;2022-09-09T03:52:38;2.00;;;1.50;;
11008;SDS011;5557;51.670;7.788;2022-09-09T03:55:07;5.20;;;1.80;;
11008;SDS011;5557;51.670;7.788;2022-09-09T03:57:35;2.97;;;1.50;;
11008;SDS011;5557;51.670;7.788;2022-09-09T04:00:06;2.80;;;1.47;;
11008;SDS011;5557;51.670;7.788;2022-09-09T04:02:34;4.30;;;1.97;;
11008;SDS011;5557;51.670;7.788;2022-09-09T04:05:01;3.17;;;1.40;;
11008;SDS011;5557;51.670;7.788;2022-09-09T04:07:28;5.30;;;1.27;;
11008;SDS011;5557;51.670;7.788;2022-09-09T04:09:55;1.83;;;1.40;;
11008;SDS011;5557;51.670;7.788;2022-09-09T04:12:23;5.43;;;1.40;;
11008;SDS011;5557;51.670;7.788;2022-09-09T04:14:50;6.80;;;1.70;;
11008;SDS011;5557;51.670;7.788;2022-09-09T04:17:17;3.43;;;1.47;;
11008;SDS011;5557;51.670;7.788;2022-09-09T04:19:43;6.47;;;1.50;;
11008;SDS011;5557;51.670;7.788;2022-09-09T04:22:10;4.30;;;1.50;;
11008;SDS011;5557;51.670;7.788;2022-09-09T04:24:37;2.70;;;1.10;;
11008;SDS011;5557;51.670;7.788;2022-09-09T04:27:04;4.70;;;1.50;;
11008;SDS011;5557;51.670;7.788;2022-09-09T04:29:31;2.53;;;1.47;;
11008;SDS011;5557;51.670;7.788;2022-09-09T04:31:58;2.60;;;1.33;;
11008;SDS011;5557;51.670;7.788;2022-09-09T04:34:25;1.63;;;1.53;;
11008;SDS011;5557;51.670;7.788;2022-09-09T04:36:52;3.43;;;2.50;;
11008;SDS011;5557;51.670;7.788;2022-09-09T04:39:19;1.93;;;1.20;;
11008;SDS011;5557;51.670;7.788;2022-09-09T04:41:46;1.60;;;1.50;;
11008;SDS011;5557;51.670;7.788;2022-09-09T04:44:13;2.83;;;1.40;;
11008;SDS011;5557;51.670;7.788;2022-09-09T04:46:40;3.23;;;1.63;;
11008;SDS011;5557;51.670;7.788;2022-09-09T04:49:07;3.67;;;1.20;;
11008;SDS011;5557;51.670;7.788;2022-09-09T04:51:40;3.30;;;1.60;;
11008;SDS011;5557;51.670;7.788;2022-09-09T04:54:07;3.53;;;1.17;;
11008;SDS011;5557;51.670;7.788;2022-09-09T04:56:34;6.50;;;1.90;;
11008;SDS011;5557;51.670;7.788;2022-09-09T04:59:02;7.63;;;2.13;;
11008;SDS011;5557;51.670;7.788;2022-09-09T05:01:29;2.17;;;1.40;;
11008;SDS011;5557;51.670;7.788;2022-09-09T05:03:56;1.50;;;1.33;;
11008;SDS011;5557;51.670;7.788;2022-09-09T05:06:24;5.97;;;1.80;;
11008;SDS011;5557;51.670;7.788;2022-09-09T05:08:51;1.30;;;1.20;;
11008;SDS011;5557;51.670;7.788;2022-09-09T05:11:19;2.93;;;1.57;;
11008;SDS011;5557;51.670;7.788;2022-09-09T05:13:51;5.00;;;2.17;;
11008;SDS011;5557;51.670;7.788;2022-09-09T05:16:19;2.07;;;1.50;;
11008;SDS011;5557;51.670;7.788;2022-09-09T05:18:46;3.43;;;1.70;;
11008;SDS011;5557;51.670;7.788;2022-09-09T05:21:14;2.53;;;1.40;;
11008;SDS011;5557;51.670;7.788;2022-09-09T05:23:41;4.63;;;1.60;;
11008;SDS011;5557;51.670;7.788;2022-09-09T05:26:11;8.17;;;1.83;;
11008;SDS011;5557;51.670;7.788;2022-09-09T05:28:43;7.00;;;1.33;;
11008;SDS011;5557;51.670;7.788;2022-09-09T05:31:10;3.97;;;1.00;;
11008;SDS011;5557;51.670;7.788;2022-09-09T05:33:42;5.93;;;1.63;;
11008;SDS011;5557;51.670;7.788;2022-09-09T05:36:13;2.63;;;1.10;;
11008;SDS011;5557;51.670;7.788;2022-09-09T05:38:41;8.20;;;1.90;;
11008;SDS011;5557;51.670;7.788;2022-09-09T05:41:09;5.40;;;1.70;;
11008;SDS011;5557;51.670;7.788;2022-09-09T05:43:37;4.30;;;1.53;;
11008;SDS011;5557;51.670;7.788;2022-09-09T05:46:06;2.13;;;1.27;;
11008;SDS011;5557;51.670;7.788;2022-09-09T05:48:53;2.90;;;1.50;;
11008;SDS011;5557;51.670;7.788;2022-09-09T05:51:21;4.60;;;1.37;;
11008;SDS011;5557;51.670;7.788;2022-09-09T05:53:50;2.97;;;1.53;;
11008;SDS011;5557;51.670;7.788;2022-09-09T05:56:18;5.57;;;1.67;;
11008;SDS011;5557;51.670;7.788;2022-09-09T05:58:48;4.77;;;1.90;;
11008;SDS011;5557;51.670;7.788;2022-09-09T06:01:16;2.90;;;1.20;;
11008;SDS011;5557;51.670;7.788;2022-09-09T06:03:46;10.50;;;2.13;;
11008;SDS011;5557;51.670;7.788;2022-09-09T06:06:15;4.17;;;2.10;;
11008;SDS011;5557;51.670;7.788;2022-09-09T06:08:44;3.00;;;1.63;;
11008;SDS011;5557;51.670;7.788;2022-09-09T06:11:12;1.73;;;1.37;;
11008;SDS011;5557;51.670;7.788;2022-09-09T06:13:41;5.57;;;1.60;;
11008;SDS011;5557;51.670;7.788;2022-09-09T06:16:09;3.83;;;1.53;;
11008;SDS011;5557;51.670;7.788;2022-09-09T06:18:38;2.50;;;2.10;;
11008;SDS011;5557;51.670;7.788;2022-09-09T06:21:07;11.10;;;1.17;;
11008;SDS011;5557;51.670;7.788;2022-09-09T06:23:39;1.77;;;1.20;;
11008;SDS011;5557;51.670;7.788;2022-09-09T06:26:12;5.83;;;1.90;;
11008;SDS011;5557;51.670;7.788;2022-09-09T06:28:41;5.40;;;1.87;;
11008;SDS011;5557;51.670;7.788;2022-09-09T06:31:12;7.27;;;2.33;;
11008;SDS011;5557;51.670;7.788;2022-09-09T06:33:41;5.10;;;1.30;;
11008;SDS011;5557;51.670;7.788;2022-09-09T06:36:10;2.40;;;1.73;;
11008;SDS011;5557;51.670;7.788;2022-09-09T06:38:42;3.73;;;1.87;;
11008;SDS011;5557;51.670;7.788;2022-09-09T06:41:10;5.40;;;1.43;;
11008;SDS011;5557;51.670;7.788;2022-09-09T06:43:39;2.10;;;1.40;;
11008;SDS011;5557;51.670;7.788;2022-09-09T06:46:10;4.53;;;1.90;;
11008;SDS011;5557;51.670;7.788;2022-09-09T06:48:42;5.57;;;1.73;;
11008;SDS011;5557;51.670;7.788;2022-09-09T06:51:17;1.60;;;1.50;;
11008;SDS011;5557;51.670;7.788;2022-09-09T06:53:45;2.83;;;1.60;;
11008;SDS011;5557;51.670;7.788;2022-09-09T06:56:23;4.73;;;1.23;;
11008;SDS011;5557;51.670;7.788;2022-09-09T06:59:02;3.80;;;0.90;;
11008;SDS011;5557;51.670;7.788;2022-09-09T07:01:32;9.40;;;1.53;;
11008;SDS011;5557;51.670;7.788;2022-09-09T07:04:01;9.90;;;1.20;;
11008;SDS011;5557;51.670;7.788;2022-09-09T07:06:31;6.87;;;1.50;;
11008;SDS011;5557;51.670;7.788;2022-09-09T07:09:02;6.57;;;1.40;;
11008;SDS011;5557;51.670;7.788;2022-09-09T07:11:36;3.23;;;1.30;;
11008;SDS011;5557;51.670;7.788;2022-09-09T07:14:04;2.67;;;1.63;;
11008;SDS011;5557;51.670;7.788;2022-09-09T07:16:31;5.50;;;1.53;;
11008;SDS011;5557;51.670;7.788;2022-09-09T07:18:59;1.73;;;1.20;;
11008;SDS011;5557;51.670;7.788;2022-09-09T07:21:27;2.87;;;1.33;;
11008;SDS011;5557;51.670;7.788;2022-09-09T07:23:55;4.63;;;1.43;;
11008;SDS011;5557;51.670;7.788;2022-09-09T07:26:24;2.37;;;1.30;;
11008;SDS011;5557;51.670;7.788;2022-09-09T07:28:53;2.80;;;1.33;;
11008;SDS011;5557;51.670;7.788;2022-09-09T07:31:23;2.07;;;1.00;;
11008;SDS011;5557;51.670;7.788;2022-09-09T07:33:57;4.50;;;1.53;;
11008;SDS011;5557;51.670;7.788;2022-09-09T07:36:27;5.50;;;2.20;;
11008;SDS011;5557;51.670;7.788;2022-09-09T07:39:06;12.20;;;2.10;;
11008;SDS011;5557;51.670;7.788;2022-09-09T07:41:43;3.07;;;1.30;;
11008;SDS011;5557;51.670;7.788;2022-09-09T07:44:16;1.87;;;1.00;;
11008;SDS011;5557;51.670;7.788;2022-09-09T07:46:47;2.80;;;0.93;;
11008;SDS011;5557;51.670;7.788;2022-09-09T07:49:15;3.30;;;1.40;;
11008;SDS011;5557;51.670;7.788;2022-09-09T07:51:46;2.27;;;0.90;;
11008;SDS011;5557;51.670;7.788;2022-09-09T07:54:16;3.10;;;0.97;;
11008;SDS011;5557;51.670;7.788;2022-09-09T07:56:46;3.33;;;1.03;;
11008;SDS011;5557;51.670;7.788;2022-09-09T07:59:13;3.00;;;1.10;;
11008;SDS011;5557;51.670;7.788;2022-09-09T08:01:42;2.80;;;0.80;;
11008;SDS011;5557;51.670;7.788;2022-09-09T08:04:11;2.30;;;1.20;;
11008;SDS011;5557;51.670;7.788;2022-09-09T08:06:44;1.13;;;0.80;;
11008;SDS011;5557;51.670;7.788;2022-09-09T08:09:13;3.63;;;1.20;;
11008;SDS011;5557;51.670;7.788;2022-09-09T08:11:41;1.10;;;0.70;;
11008;SDS011;5557;51.670;7.788;2022-09-09T08:14:09;2.43;;;0.80;;
11008;SDS011;5557;51.670;7.788;2022-09-09T08:16:38;9.83;;;0.97;;
11008;SDS011;5557;51.670;7.788;2022-09-09T08:19:10;3.93;;;0.80;;
11008;SDS011;5557;51.670;7.788;2022-09-09T08:21:38;5.80;;;1.03;;
11008;SDS011;5557;51.670;7.788;2022-09-09T08:24:07;2.70;;;1.00;;
11008;SDS011;5557;51.670;7.788;2022-09-09T08:26:37;9.83;;;1.10;;
11008;SDS011;5557;51.670;7.788;2022-09-09T08:29:06;3.37;;;1.03;;
11008;SDS011;5557;51.670;7.788;2022-09-09T08:31:35;4.80;;;1.10;;
11008;SDS011;5557;51.670;7.788;2022-09-09T08:34:04;2.33;;;0.70;;
11008;SDS011;5557;51.670;7.788;2022-09-09T08:36:34;4.60;;;0.90;;
11008;SDS011;5557;51.670;7.788;2022-09-09T08:39:03;4.37;;;0.90;;
11008;SDS011;5557;51.670;7.788;2022-09-09T08:41:44;3.33;;;1.17;;
11008;SDS011;5557;51.670;7.788;2022-09-09T08:50:55;4.00;;;1.27;;
11008;SDS011;5557;51.670;7.788;2022-09-09T08:53:28;8.47;;;1.87;;
11008;SDS011;5557;51.670;7.788;2022-09-09T08:56:08;3.10;;;1.30;;
11008;SDS011;5557;51.670;7.788;2022-09-09T08:58:49;3.60;;;1.10;;
11008;SDS011;5557;51.670;7.788;2022-09-09T09:02:06;2.43;;;0.87;;
11008;SDS011;5557;51.670;7.788;2022-09-09T09:05:15;3.47;;;1.03;;
11008;SDS011;5557;51.670;7.788;2022-09-09T09:07:31;2.03;;;1.00;;
11008;SDS011;5557;51.670;7.788;2022-09-09T09:16:19;6.67;;;1.60;;
11008;SDS011;5557;51.670;7.788;2022-09-09T09:19:04;3.60;;;0.80;;
11008;SDS011;5557;51.670;7.788;2022-09-09T09:21:39;5.53;;;1.17;;
11008;SDS011;5557;51.670;7.788;2022-09-09T09:24:52;9.37;;;0.87;;
11008;SDS011;5557;51.670;7.788;2022-09-09T09:30:53;2.03;;;1.10;;
11008;SDS011;5557;51.670;7.788;2022-09-09T09:33:27;1.37;;;0.87;;
11008;SDS011;5557;51.670;7.788;2022-09-09T09:36:00;4.13;;;1.00;;
11008;SDS011;5557;51.670;7.788;2022-09-09T09:38:29;3.80;;;1.20;;
11008;SDS011;5557;51.670;7.788;2022-09-09T09:41:16;5.20;;;1.00;;
11008;SDS011;5557;51.670;7.788;2022-09-09T09:43:53;2.90;;;1.10;;
11008;SDS011;5557;51.670;7.788;2022-09-09T09:46:21;1.80;;;1.00;;
11008;SDS011;5557;51.670;7.788;2022-09-09T09:48:56;1.80;;;1.23;;
11008;SDS011;5557;51.670;7.788;2022-09-09T09:51:24;2.70;;;1.10;;
11008;SDS011;5557;51.670;7.788;2022-09-09T09:53:52;2.80;;;0.73;;
11008;SDS011;5557;51.670;7.788;2022-09-09T09:56:26;3.63;;;1.13;;
11008;SDS011;5557;51.670;7.788;2022-09-09T09:58:58;4.70;;;1.03;;
11008;SDS011;5557;51.670;7.788;2022-09-09T10:01:34;4.40;;;1.63;;
11008;SDS011;5557;51.670;7.788;2022-09-09T10:04:23;3.00;;;0.80;;
11008;SDS011;5557;51.670;7.788;2022-09-09T10:06:50;5.70;;;1.20;;
11008;SDS011;5557;51.670;7.788;2022-09-09T10:15:22;3.30;;;1.17;;
11008;SDS011;5557;51.670;7.788;2022-09-09T10:27:49;6.53;;;0.80;;
11008;SDS011;5557;51.670;7.788;2022-09-09T10:31:36;4.07;;;0.70;;
11008;SDS011;5557;51.670;7.788;2022-09-09T10:33:13;1.57;;;1.03;;
11008;SDS011;5557;51.670;7.788;2022-09-09T10:36:02;1.23;;;1.00;;
11008;SDS011;5557;51.670;7.788;2022-09-09T10:38:43;5.13;;;1.20;;
11008;SDS011;5557;51.670;7.788;2022-09-09T10:41:18;3.20;;;1.00;;
11008;SDS011;5557;51.670;7.788;2022-09-09T10:47:10;1.97;;;0.90;;
11008;SDS011;5557;51.670;7.788;2022-09-09T10:51:20;2.33;;;0.70;;
11008;SDS011;5557;51.670;7.788;2022-09-09T10:53:43;7.10;;;1.13;;
11008;SDS011;5557;51.670;7.788;2022-09-09T10:56:20;4.60;;;1.00;;
11008;SDS011;5557;51.670;7.788;2022-09-09T10:59:00;1.47;;;0.87;;
11008;SDS011;5557;51.670;7.788;2022-09-09T11:01:35;7.00;;;0.80;;
11008;SDS011;5557;51.670;7.788;2022-09-09T11:04:15;1.30;;;0.80;;
11008;SDS011;5557;51.670;7.788;2022-09-09T11:06:54;1.20;;;0.70;;
11008;SDS011;5557;51.670;7.788;2022-09-09T11:09:22;2.10;;;1.03;;
11008;SDS011;5557;51.670;7.788;2022-09-09T11:11:57;3.27;;;0.67;;
11008;SDS011;5557;51.670;7.788;2022-09-09T11:17:10;3.57;;;0.87;;
11008;SDS011;5557;51.670;7.788;2022-09-09T11:19:45;4.20;;;0.70;;
11008;SDS011;5557;51.670;7.788;2022-09-09T11:22:32;4.03;;;1.00;;
11008;SDS011;5557;51.670;7.788;2022-09-09T11:30:19;4.57;;;0.80;;
11008;SDS011;5557;51.670;7.788;2022-09-09T11:39:27;2.33;;;0.80;;
11008;SDS011;5557;51.670;7.788;2022-09-09T11:44:39;1.50;;;0.60;;
11008;SDS011;5557;51.670;7.788;2022-09-09T11:53:04;1.03;;;0.60;;
11008;SDS011;5557;51.670;7.788;2022-09-09T11:56:02;1.30;;;0.70;;
11008;SDS011;5557;51.670;7.788;2022-09-09T11:58:53;1.37;;;0.80;;
11008;SDS011;5557;51.670;7.788;2022-09-09T12:01:41;1.63;;;0.90;;
11008;SDS011;5557;51.670;7.788;2022-09-09T12:06:57;4.03;;;2.03;;
11008;SDS011;5557;51.670;7.788;2022-09-09T12:09:31;1.47;;;1.00;;
11008;SDS011;5557;51.670;7.788;2022-09-09T12:15:23;2.60;;;0.50;;
11008;SDS011;5557;51.670;7.788;2022-09-09T12:17:56;6.83;;;0.70;;
11008;SDS011;5557;51.670;7.788;2022-09-09T12:20:37;1.37;;;0.70;;
11008;SDS011;5557;51.670;7.788;2022-09-09T12:26:22;1.20;;;0.90;;
11008;SDS011;5557;51.670;7.788;2022-09-09T12:32:45;9.87;;;0.90;;
11008;SDS011;5557;51.670;7.788;2022-09-09T12:35:19;1.40;;;0.70;;
11008;SDS011;5557;51.670;7.788;2022-09-09T12:37:57;1.33;;;0.80;;
11008;SDS011;5557;51.670;7.788;2022-09-09T12:40:31;1.10;;;0.77;;
11008;SDS011;5557;51.670;7.788;2022-09-09T12:43:02;2.27;;;0.70;;
11008;SDS011;5557;51.670;7.788;2022-09-09T12:45:43;1.63;;;0.60;;
11008;SDS011;5557;51.670;7.788;2022-09-09T12:48:11;1.30;;;0.70;;
11008;SDS011;5557;51.670;7.788;2022-09-09T12:50:48;1.33;;;0.80;;
11008;SDS011;5557;51.670;7.788;2022-09-09T12:53:33;1.53;;;0.60;;
11008;SDS011;5557;51.670;7.788;2022-09-09T12:56:06;1.10;;;0.80;;
11008;SDS011;5557;51.670;7.788;2022-09-09T12:58:35;0.97;;;0.57;;
11008;SDS011;5557;51.670;7.788;2022-09-09T13:01:04;1.27;;;0.80;;
11008;SDS011;5557;51.670;7.788;2022-09-09T13:03:41;1.30;;;0.70;;
11008;SDS011;5557;51.670;7.788;2022-09-09T13:06:13;1.00;;;0.50;;
11008;SDS011;5557;51.670;7.788;2022-09-09T13:08:52;3.93;;;0.60;;
11008;SDS011;5557;51.670;7.788;2022-09-09T13:11:21;1.37;;;0.60;;
11008;SDS011;5557;51.670;7.788;2022-09-09T13:13:53;1.37;;;0.90;;
11008;SDS011;5557;51.670;7.788;2022-09-09T13:16:40;2.50;;;0.60;;
11008;SDS011;5557;51.670;7.788;2022-09-09T13:19:09;4.33;;;1.30;;
11008;SDS011;5557;51.670;7.788;2022-09-09T13:21:41;2.90;;;0.97;;
11008;SDS011;5557;51.670;7.788;2022-09-09T13:27:19;3.27;;;0.97;;
11008;SDS011;5557;51.670;7.788;2022-09-09T13:29:53;2.67;;;0.93;;
11008;SDS011;5557;51.670;7.788;2022-09-09T13:32:22;2.83;;;1.60;;
11008;SDS011;5557;51.670;7.788;2022-09-09T13:34:51;5.03;;;1.57;;
11008;SDS011;5557;51.670;7.788;2022-09-09T13:37:33;1.87;;;1.50;;
11008;SDS011;5557;51.670;7.788;2022-09-09T13:40:02;2.20;;;1.30;;
11008;SDS011;5557;51.670;7.788;2022-09-09T13:42:33;2.60;;;0.90;;
11008;SDS011;5557;51.670;7.788;2022-09-09T13:45:05;1.57;;;0.93;;
11008;SDS011;5557;51.670;7.788;2022-09-09T13:47:42;6.53;;;0.97;;
11008;SDS011;5557;51.670;7.788;2022-09-09T13:50:19;1.10;;;0.60;;
11008;SDS011;5557;51.670;7.788;2022-09-09T13:52:47;1.57;;;0.87;;
11008;SDS011;5557;51.670;7.788;2022-09-09T13:55:17;1.30;;;1.13;;
11008;SDS011;5557;51.670;7.788;2022-09-09T13:57:57;7.50;;;0.80;;
11008;SDS011;5557;51.670;7.788;2022-09-09T14:00:30;1.87;;;1.00;;
11008;SDS011;5557;51.670;7.788;2022-09-09T14:02:58;1.63;;;1.10;;
11008;SDS011;5557;51.670;7.788;2022-09-09T14:05:28;4.40;;;1.20;;
11008;SDS011;5557;51.670;7.788;2022-09-09T14:07:58;1.63;;;1.10;;
11008;SDS011;5557;51.670;7.788;2022-09-09T14:10:26;2.83;;;1.27;;
11008;SDS011;5557;51.670;7.788;2022-09-09T14:12:53;1.20;;;0.93;;
11008;SDS011;5557;51.670;7.788;2022-09-09T14:15:20;4.70;;;1.50;;
11008;SDS011;5557;51.670;7.788;2022-09-09T14:17:50;1.53;;;1.00;;
11008;SDS011;5557;51.670;7.788;2022-09-09T14:20:25;4.00;;;1.10;;
11008;SDS011;5557;51.670;7.788;2022-09-09T14:22:52;3.47;;;1.20;;
11008;SDS011;5557;51.670;7.788;2022-09-09T14:25:19;2.13;;;0.70;;
11008;SDS011;5557;51.670;7.788;2022-09-09T14:27:46;1.10;;;0.80;;
11008;SDS011;5557;51.670;7.788;2022-09-09T14:30:13;1.00;;;0.70;;
11008;SDS011;5557;51.670;7.788;2022-09-09T14:32:41;1.60;;;0.90;;
11008;SDS011;5557;51.670;7.788;2022-09-09T14:35:09;2.83;;;0.87;;
11008;SDS011;5557;51.670;7.788;2022-09-09T14:37:36;1.90;;;0.80;;
11008;SDS011;5557;51.670;7.788;2022-09-09T14:40:03;2.23;;;0.90;;
11008;SDS011;5557;51.670;7.788;2022-09-09T14:42:30;1.00;;;0.60;;
11008;SDS011;5557;51.670;7.788;2022-09-09T14:44:57;1.10;;;0.80;;
11008;SDS011;5557;51.670;7.788;2022-09-09T14:47:25;9.43;;;1.40;;
11008;SDS011;5557;51.670;7.788;2022-09-09T14:49:52;2.93;;;0.63;;
11008;SDS011;5557;51.670;7.788;2022-09-09T14:52:22;1.30;;;0.70;;
11008;SDS011;5557;51.670;7.788;2022-09-09T14:54:49;1.30;;;0.70;;
11008;SDS011;5557;51.670;7.788;2022-09-09T14:57:16;1.87;;;0.80;;
11008;SDS011;5557;51.670;7.788;2022-09-09T14:59:43;1.03;;;0.70;;
11008;SDS011;5557;51.670;7.788;2022-09-09T15:02:11;1.83;;;0.60;;
11008;SDS011;5557;51.670;7.788;2022-09-09T15:04:39;1.93;;;1.10;;
11008;SDS011;5557;51.670;7.788;2022-09-09T15:07:06;1.30;;;0.70;;
11008;SDS011;5557;51.670;7.788;2022-09-09T15:09:33;1.70;;;1.10;;
11008;SDS011;5557;51.670;7.788;2022-09-09T15:12:00;2.90;;;0.77;;
11008;SDS011;5557;51.670;7.788;2022-09-09T15:14:28;3.37;;;1.00;;
11008;SDS011;5557;51.670;7.788;2022-09-09T15:16:55;2.10;;;0.60;;
11008;SDS011;5557;51.670;7.788;2022-09-09T15:19:24;1.40;;;0.90;;
11008;SDS011;5557;51.670;7.788;2022-09-09T15:21:51;3.67;;;0.60;;
11008;SDS011;5557;51.670;7.788;2022-09-09T15:24:18;1.83;;;0.60;;
11008;SDS011;5557;51.670;7.788;2022-09-09T15:26:45;1.97;;;0.90;;
11008;SDS011;5557;51.670;7.788;2022-09-09T15:29:12;2.50;;;0.70;;
11008;SDS011;5557;51.670;7.788;2022-09-09T15:31:39;2.20;;;0.70;;
11008;SDS011;5557;51.670;7.788;2022-09-09T15:34:07;2.80;;;0.93;;
11008;SDS011;5557;51.670;7.788;2022-09-09T15:36:38;2.03;;;0.80;;
11008;SDS011;5557;51.670;7.788;2022-09-09T15:39:07;1.30;;;0.67;;
11008;SDS011;5557;51.670;7.788;2022-09-09T15:41:41;2.90;;;0.90;;
11008;SDS011;5557;51.670;7.788;2022-09-09T15:44:09;4.80;;;0.70;;
11008;SDS011;5557;51.670;7.788;2022-09-09T15:46:39;2.70;;;0.80;;
11008;SDS011;5557;51.670;7.788;2022-09-09T15:49:12;2.27;;;0.80;;
11008;SDS011;5557;51.670;7.788;2022-09-09T15:51:42;1.87;;;0.83;;
11008;SDS011;5557;51.670;7.788;2022-09-09T15:54:17;1.10;;;0.70;;
11008;SDS011;5557;51.670;7.788;2022-09-09T15:56:47;5.03;;;0.80;;
11008;SDS011;5557;51.670;7.788;2022-09-09T15:59:25;2.93;;;0.90;;
11008;SDS011;5557;51.670;7.788;2022-09-09T16:01:57;2.00;;;0.87;;
11008;SDS011;5557;51.670;7.788;2022-09-09T16:04:26;1.67;;;1.10;;
11008;SDS011;5557;51.670;7.788;2022-09-09T16:06:59;2.00;;;0.93;;
11008;SDS011;5557;51.670;7.788;2022-09-09T16:09:28;1.23;;;0.77;;
11008;SDS011;5557;51.670;7.788;2022-09-09T16:11:59;5.33;;;1.50;;
11008;SDS011;5557;51.670;7.788;2022-09-09T16:14:28;1.80;;;0.90;;
11008;SDS011;5557;51.670;7.788;2022-09-09T16:17:00;10.40;;;2.43;;
11008;SDS011;5557;51.670;7.788;2022-09-09T16:19:27;6.47;;;1.93;;
11008;SDS011;5557;51.670;7.788;2022-09-09T16:21:57;1.93;;;0.60;;
11008;SDS011;5557;51.670;7.788;2022-09-09T16:24:24;2.20;;;0.70;;
11008;SDS011;5557;51.670;7.788;2022-09-09T16:26:53;0.97;;;0.50;;
11008;SDS011;5557;51.670;7.788;2022-09-09T16:29:23;1.10;;;0.53;;
11008;SDS011;5557;51.670;7.788;2022-09-09T16:31:53;1.30;;;0.67;;
11008;SDS011;5557;51.670;7.788;2022-09-09T16:34:26;1.00;;;0.50;;
11008;SDS011;5557;51.670;7.788;2022-09-09T16:36:53;0.90;;;0.70;;
11008;SDS011;5557;51.670;7.788;2022-09-09T16:39:20;2.17;;;0.70;;
11008;SDS011;5557;51.670;7.788;2022-09-09T16:41:48;2.43;;;0.90;;
11008;SDS011;5557;51.670;7.788;2022-09-09T16:44:16;2.30;;;0.67;;
11008;SDS011;5557;51.670;7.788;2022-09-09T16:46:46;1.00;;;0.70;;
11008;SDS011;5557;51.670;7.788;2022-09-09T16:49:15;7.43;;;0.60;;
11008;SDS011;5557;51.670;7.788;2022-09-09T16:51:46;0.90;;;0.50;;
11008;SDS011;5557;51.670;7.788;2022-09-09T16:54:15;2.90;;;0.70;;
11008;SDS011;5557;51.670;7.788;2022-09-09T16:56:44;1.30;;;0.60;;
11008;SDS011;5557;51.670;7.788;2022-09-09T16:59:13;1.00;;;0.60;;
11008;SDS011;5557;51.670;7.788;2022-09-09T17:01:42;2.27;;;1.20;;
11008;SDS011;5557;51.670;7.788;2022-09-09T17:04:11;5.07;;;1.03;;
11008;SDS011;5557;51.670;7.788;2022-09-09T17:06:47;2.70;;;0.63;;
11008;SDS011;5557;51.670;7.788;2022-09-09T17:09:15;1.20;;;0.90;;
11008;SDS011;5557;51.670;7.788;2022-09-09T17:11:44;1.93;;;1.00;;